createdAt,value
2016-02-06T00:00:10.842Z,0
2016-02-06T00:01:10.673Z,0
2016-02-06T00:02:10.818Z,0
2016-02-06T00:03:10.821Z,0
2016-02-06T00:04:10.792Z,0
2016-02-06T00:05:10.794Z,0
2016-02-06T00:06:10.812Z,0
2016-02-06T00:07:10.816Z,0
2016-02-06T00:08:10.774Z,0
2016-02-06T00:09:10.793Z,0
2016-02-06T00:10:10.795Z,0
2016-02-06T00:11:10.798Z,0
2016-02-06T00:12:10.815Z,0
2016-02-06T00:13:10.788Z,0
2016-02-06T00:14:10.807Z,0
2016-02-06T00:15:10.747Z,0
2016-02-06T00:16:10.750Z,0
2016-02-06T00:17:10.769Z,0
2016-02-06T00:18:10.771Z,0
2016-02-06T00:19:10.758Z,0
2016-02-06T00:20:10.731Z,0
2016-02-06T00:21:10.765Z,0
2016-02-06T00:22:10.783Z,0
2016-02-06T00:23:10.739Z,0
2016-02-06T00:24:10.757Z,0
2016-02-06T00:25:10.745Z,0
2016-02-06T00:26:10.747Z,0
2016-02-06T00:27:10.720Z,0
2016-02-06T00:28:10.737Z,0
2016-02-06T00:29:10.740Z,0
2016-02-06T00:30:10.742Z,0
2016-02-06T00:31:10.731Z,0
2016-02-06T00:32:10.748Z,0
2016-02-06T00:33:10.721Z,0
2016-02-06T00:34:10.743Z,0
2016-02-06T00:35:10.746Z,0
2016-02-06T00:36:10.718Z,0
2016-02-06T00:37:10.721Z,0
2016-02-06T00:38:10.740Z,0
2016-02-06T00:39:10.680Z,0
2016-02-06T00:40:10.682Z,0
2016-02-06T00:41:10.685Z,0
2016-02-06T00:42:10.656Z,0
2016-02-06T00:43:10.676Z,0
2016-02-06T00:44:10.662Z,0
2016-02-06T00:45:10.665Z,0
2016-02-06T00:46:10.671Z,0
2016-02-06T00:47:10.674Z,0
2016-02-06T00:48:10.646Z,0
2016-02-06T00:49:10.648Z,0
2016-02-06T00:50:10.651Z,0
2016-02-06T00:51:10.654Z,0
2016-02-06T00:52:10.624Z,0
2016-02-06T00:53:10.627Z,0
2016-02-06T00:54:10.678Z,0
2016-02-06T00:55:10.696Z,0
2016-02-06T00:56:10.636Z,0
2016-02-06T00:57:10.639Z,0
2016-02-06T00:58:10.626Z,0
2016-02-06T00:59:10.676Z,0
2016-02-06T01:00:10.647Z,0
2016-02-06T01:01:10.603Z,0
2016-02-06T01:02:10.637Z,0
2016-02-06T01:03:10.639Z,0
2016-02-06T01:04:10.532Z,0
2016-02-06T01:05:10.603Z,0
2016-02-06T01:06:10.590Z,0
2016-02-06T01:07:10.610Z,0
2016-02-06T01:08:10.597Z,0
2016-02-06T01:09:10.585Z,0
2016-02-06T01:10:10.619Z,0
2016-02-06T01:11:10.606Z,0
2016-02-06T01:12:10.577Z,0
2016-02-06T01:13:10.610Z,0
2016-02-06T01:14:10.615Z,0
2016-02-06T01:15:11.055Z,0
2016-02-06T01:16:10.589Z,0
2016-02-06T01:17:10.580Z,0
2016-02-06T01:18:10.583Z,0
2016-02-06T01:19:10.555Z,0
2016-02-06T01:20:10.573Z,0
2016-02-06T01:21:10.763Z,0
2016-02-06T01:22:10.547Z,0
2016-02-06T01:23:10.393Z,0
2016-02-06T01:24:10.552Z,0
2016-02-06T01:25:10.571Z,0
2016-02-06T01:26:10.557Z,0
2016-02-06T01:27:10.547Z,0
2016-02-06T01:28:10.534Z,0
2016-02-06T01:29:10.552Z,0
2016-02-06T01:30:10.523Z,0
2016-02-06T01:31:10.369Z,0
2016-02-06T01:32:10.513Z,0
2016-02-06T01:33:10.523Z,0
2016-02-06T01:34:10.527Z,0
2016-02-06T01:35:10.514Z,0
2016-02-06T01:36:10.501Z,0
2016-02-06T01:37:10.550Z,0
2016-02-06T01:38:10.538Z,0
2016-02-06T01:39:10.509Z,0
2016-02-06T01:40:10.512Z,0
2016-02-06T01:41:10.514Z,0
2016-02-06T01:42:10.486Z,0
2016-02-06T01:43:10.488Z,0
2016-02-06T01:44:10.523Z,0
2016-02-06T01:45:10.494Z,0
2016-02-06T01:46:10.497Z,0
2016-02-06T01:47:10.499Z,0
2016-02-06T01:48:10.471Z,0
2016-02-06T01:49:10.458Z,0
2016-02-06T01:50:10.477Z,0
2016-02-06T01:51:10.479Z,0
2016-02-06T01:52:10.497Z,0
2016-02-06T01:53:09.703Z,0
2016-02-06T01:54:10.456Z,0
2016-02-06T01:55:10.505Z,0
2016-02-06T01:56:10.430Z,0
2016-02-06T01:57:10.432Z,0
2016-02-06T01:58:10.435Z,0
2016-02-06T01:59:10.422Z,0
2016-02-06T02:00:10.411Z,0
2016-02-06T02:01:10.444Z,0
2016-02-06T02:02:10.447Z,0
2016-02-06T02:03:10.418Z,0
2016-02-06T02:04:10.438Z,0
2016-02-06T02:05:10.441Z,0
2016-02-06T02:06:10.584Z,0
2016-02-06T02:07:10.274Z,0
2016-02-06T02:08:10.402Z,0
2016-02-06T02:09:10.419Z,0
2016-02-06T02:10:10.439Z,0
2016-02-06T02:11:10.394Z,0
2016-02-06T02:12:10.397Z,0
2016-02-06T02:13:10.371Z,0
2016-02-06T02:14:10.374Z,0
2016-02-06T02:15:10.266Z,0
2016-02-06T02:16:10.379Z,0
2016-02-06T02:17:10.382Z,0
2016-02-06T02:18:10.384Z,0
2016-02-06T02:19:10.371Z,0
2016-02-06T02:20:10.374Z,0
2016-02-06T02:21:10.362Z,0
2016-02-06T02:22:10.395Z,0
2016-02-06T02:23:10.367Z,0
2016-02-06T02:24:10.337Z,0
2016-02-06T02:25:10.340Z,0
2016-02-06T02:26:10.348Z,0
2016-02-06T02:27:10.335Z,0
2016-02-06T02:28:10.338Z,0
2016-02-06T02:29:10.340Z,0
2016-02-06T02:30:10.327Z,0
2016-02-06T02:31:10.319Z,0
2016-02-06T02:32:10.354Z,0
2016-02-06T02:33:10.342Z,0
2016-02-06T02:34:10.295Z,0
2016-02-06T02:35:10.314Z,0
2016-02-06T02:36:10.316Z,0
2016-02-06T02:37:10.319Z,0
2016-02-06T02:38:10.305Z,0
2016-02-06T02:39:10.293Z,0
2016-02-06T02:40:10.296Z,0
2016-02-06T02:41:10.285Z,0
2016-02-06T02:42:10.287Z,0
2016-02-06T02:43:10.274Z,0
2016-02-06T02:44:10.260Z,0
2016-02-06T02:45:10.263Z,0
2016-02-06T02:46:10.266Z,0
2016-02-06T02:47:10.270Z,0
2016-02-06T02:48:10.257Z,0
2016-02-06T02:49:10.260Z,0
2016-02-06T02:50:10.246Z,0
2016-02-06T02:51:10.265Z,0
2016-02-06T02:52:10.252Z,0
2016-02-06T02:53:10.240Z,0
2016-02-06T02:54:10.257Z,0
2016-02-06T02:55:10.260Z,0
2016-02-06T02:56:10.231Z,0
2016-02-06T02:57:10.235Z,0
2016-02-06T02:58:10.221Z,0
2016-02-06T02:59:10.241Z,0
2016-02-06T03:00:10.243Z,0
2016-02-06T03:01:10.230Z,0
2016-02-06T03:02:10.202Z,0
2016-02-06T03:03:10.236Z,0
2016-02-06T03:04:10.243Z,0
2016-02-06T03:05:10.184Z,0
2016-02-06T03:06:10.201Z,0
2016-02-06T03:07:10.191Z,0
2016-02-06T03:08:10.240Z,0
2016-02-06T03:09:10.180Z,0
2016-02-06T03:10:10.183Z,0
2016-02-06T03:11:10.186Z,0
2016-02-06T03:12:10.189Z,0
2016-02-06T03:13:10.176Z,0
2016-02-06T03:14:10.164Z,0
2016-02-06T03:15:10.183Z,0
2016-02-06T03:16:10.138Z,0
2016-02-06T03:17:10.142Z,0
2016-02-06T03:18:10.129Z,0
2016-02-06T03:19:10.163Z,0
2016-02-06T03:20:10.136Z,0
2016-02-06T03:21:10.139Z,0
2016-02-06T03:22:10.141Z,0
2016-02-06T03:23:10.129Z,0
2016-02-06T03:24:10.116Z,0
2016-02-06T03:25:10.119Z,0
2016-02-06T03:26:10.121Z,0
2016-02-06T03:27:10.108Z,0
2016-02-06T03:28:10.127Z,0
2016-02-06T03:29:10.130Z,0
2016-02-06T03:30:10.086Z,0
2016-02-06T03:31:10.089Z,0
2016-02-06T03:32:10.076Z,0
2016-02-06T03:33:10.112Z,0
2016-02-06T03:34:10.083Z,0
2016-02-06T03:35:10.071Z,0
2016-02-06T03:36:10.089Z,0
2016-02-06T03:37:10.077Z,0
2016-02-06T03:38:10.079Z,0
2016-02-06T03:39:10.081Z,0
2016-02-06T03:40:10.087Z,0
2016-02-06T03:41:10.090Z,0
2016-02-06T03:42:10.062Z,0
2016-02-06T03:43:10.065Z,0
2016-02-06T03:44:10.083Z,0
2016-02-06T03:45:10.070Z,0
2016-02-06T03:46:10.104Z,0
2016-02-06T03:47:10.091Z,0
2016-02-06T03:48:10.062Z,0
2016-02-06T03:49:10.050Z,0
2016-02-06T03:50:10.130Z,0
2016-02-06T03:51:10.055Z,0
2016-02-06T03:52:10.042Z,0
2016-02-06T03:53:10.047Z,0
2016-02-06T03:54:10.050Z,0
2016-02-06T03:55:10.006Z,0
2016-02-06T03:56:10.039Z,0
2016-02-06T03:57:10.042Z,0
2016-02-06T03:58:10.030Z,0
2016-02-06T03:59:10.016Z,0
2016-02-06T04:00:10.019Z,0
2016-02-06T04:01:10.009Z,0
2016-02-06T04:02:10.374Z,0
2016-02-06T04:03:10.049Z,0
2016-02-06T04:04:09.989Z,0
2016-02-06T04:05:10.007Z,0
2016-02-06T04:06:09.981Z,0
2016-02-06T04:07:09.969Z,0
2016-02-06T04:08:09.987Z,0
2016-02-06T04:09:09.974Z,0
2016-02-06T04:10:09.992Z,0
2016-02-06T04:11:09.949Z,0
2016-02-06T04:12:09.983Z,0
2016-02-06T04:13:09.969Z,0
2016-02-06T04:14:09.990Z,0
2016-02-06T04:15:09.976Z,0
2016-02-06T04:16:09.932Z,0
2016-02-06T04:17:10.295Z,0
2016-02-06T04:18:10.391Z,0
2016-02-06T04:19:10.271Z,0
2016-02-06T04:20:10.337Z,0
2016-02-06T04:21:10.136Z,0
2016-02-06T04:22:09.891Z,0
2016-02-06T04:23:09.893Z,0
2016-02-06T04:24:09.897Z,0
2016-02-06T04:25:09.930Z,0
2016-02-06T04:26:09.870Z,0
2016-02-06T04:27:09.888Z,0
2016-02-06T04:28:09.891Z,0
2016-02-06T04:29:09.910Z,0
2016-02-06T04:30:09.883Z,0
2016-02-06T04:31:09.917Z,0
2016-02-06T04:32:09.857Z,0
2016-02-06T04:33:09.860Z,0
2016-02-06T04:34:09.879Z,0
2016-02-06T04:35:09.849Z,0
2016-02-06T04:36:09.712Z,0
2016-02-06T04:37:09.839Z,0
2016-02-06T04:38:09.858Z,0
2016-02-06T04:39:09.814Z,0
2016-02-06T04:40:09.849Z,0
2016-02-06T04:41:09.835Z,0
2016-02-06T04:42:09.869Z,0
2016-02-06T04:43:09.872Z,0
2016-02-06T04:44:09.813Z,0
2016-02-06T04:45:09.815Z,0
2016-02-06T04:46:09.802Z,0
2016-02-06T04:47:09.821Z,0
2016-02-06T04:48:09.793Z,0
2016-02-06T04:49:09.843Z,0
2016-02-06T04:50:09.814Z,0
2016-02-06T04:51:09.785Z,0
2016-02-06T04:52:09.790Z,0
2016-02-06T04:53:09.777Z,0
2016-02-06T04:54:09.779Z,0
2016-02-06T04:55:09.785Z,0
2016-02-06T04:56:09.757Z,0
2016-02-06T04:57:09.790Z,0
2016-02-06T04:58:09.762Z,0
2016-02-06T04:59:09.791Z,0
2016-02-06T05:00:09.748Z,0
2016-02-06T05:01:09.750Z,0
2016-02-06T05:02:09.737Z,0
2016-02-06T05:03:09.739Z,0
2016-02-06T05:04:09.743Z,0
2016-02-06T05:05:09.745Z,0
2016-02-06T05:06:09.810Z,0
2016-02-06T05:07:09.750Z,0
2016-02-06T05:08:09.771Z,0
2016-02-06T05:09:09.710Z,0
2016-02-06T05:10:09.745Z,0
2016-02-06T05:11:09.716Z,0
2016-02-06T05:12:09.735Z,0
2016-02-06T05:13:09.769Z,0
2016-02-06T05:14:09.725Z,0
2016-02-06T05:15:09.775Z,0
2016-02-06T05:16:09.700Z,0
2016-02-06T05:17:09.733Z,0
2016-02-06T05:18:09.705Z,0
2016-02-06T05:19:09.675Z,0
2016-02-06T05:20:09.741Z,0
2016-02-06T05:21:09.714Z,0
2016-02-06T05:22:09.731Z,0
2016-02-06T05:23:09.672Z,0
2016-02-06T05:24:09.659Z,0
2016-02-06T05:25:09.678Z,0
2016-02-06T05:26:09.715Z,0
2016-02-06T05:27:09.717Z,0
2016-02-06T05:28:09.673Z,0
2016-02-06T05:29:09.656Z,0
2016-02-06T05:30:09.519Z,0
2016-02-06T05:31:09.630Z,0
2016-02-06T05:32:09.507Z,0
2016-02-06T05:33:09.635Z,0
2016-02-06T05:34:09.672Z,0
2016-02-06T05:35:09.628Z,0
2016-02-06T05:36:09.646Z,0
2016-02-06T05:37:09.633Z,0
2016-02-06T05:38:09.619Z,0
2016-02-06T05:39:09.622Z,0
2016-02-06T05:40:09.642Z,0
2016-02-06T05:41:09.725Z,0
2016-02-06T05:42:09.586Z,0
2016-02-06T05:43:09.589Z,0
2016-02-06T05:44:09.592Z,0
2016-02-06T05:45:09.611Z,0
2016-02-06T05:46:09.567Z,0
2016-02-06T05:47:09.570Z,0
2016-02-06T05:48:09.588Z,0
2016-02-06T05:49:09.576Z,0
2016-02-06T05:50:09.579Z,0
2016-02-06T05:51:09.535Z,0
2016-02-06T05:52:09.568Z,0
2016-02-06T05:53:09.540Z,0
2016-02-06T05:54:09.545Z,0
2016-02-06T05:55:09.547Z,0
2016-02-06T05:56:09.566Z,0
2016-02-06T05:57:09.584Z,0
2016-02-06T05:58:09.524Z,0
2016-02-06T05:59:09.509Z,0
2016-02-06T06:00:09.543Z,0
2016-02-06T06:01:09.546Z,0
2016-02-06T06:02:09.503Z,0
2016-02-06T06:03:09.506Z,0
2016-02-06T06:04:09.352Z,0
2016-02-06T06:05:09.496Z,0
2016-02-06T06:06:09.499Z,0
2016-02-06T06:07:09.486Z,0
2016-02-06T06:08:09.488Z,0
2016-02-06T06:09:09.476Z,0
2016-02-06T06:10:09.493Z,0
2016-02-06T06:11:09.512Z,0
2016-02-06T06:12:09.437Z,0
2016-02-06T06:13:09.440Z,0
2016-02-06T06:14:09.442Z,4
2016-02-06T06:15:09.445Z,4
2016-02-06T06:16:09.509Z,4
2016-02-06T06:17:09.435Z,0
2016-02-06T06:18:09.406Z,0
2016-02-06T06:19:09.424Z,4
2016-02-06T06:20:09.414Z,4
2016-02-06T06:21:09.449Z,4
2016-02-06T06:22:09.421Z,4
2016-02-06T06:23:09.283Z,4
2016-02-06T06:24:09.394Z,8
2016-02-06T06:25:09.413Z,4
2016-02-06T06:26:09.400Z,4
2016-02-06T06:27:09.435Z,4
2016-02-06T06:28:09.425Z,8
2016-02-06T06:29:09.397Z,12
2016-02-06T06:30:09.418Z,12
2016-02-06T06:31:09.359Z,16
2016-02-06T06:32:09.346Z,16
2016-02-06T06:33:09.380Z,20
2016-02-06T06:34:09.335Z,24
2016-02-06T06:35:09.354Z,32
2016-02-06T06:36:09.340Z,36
2016-02-06T06:37:09.328Z,44
2016-02-06T06:38:09.175Z,48
2016-02-06T06:39:09.334Z,56
2016-02-06T06:40:09.352Z,64
2016-02-06T06:41:09.309Z,76
2016-02-06T06:42:09.343Z,88
2016-02-06T06:43:09.299Z,96
2016-02-06T06:44:09.348Z,112
2016-02-06T06:45:09.304Z,120
2016-02-06T06:46:09.337Z,132
2016-02-06T06:47:09.293Z,140
2016-02-06T06:48:09.285Z,148
2016-02-06T06:49:09.333Z,156
2016-02-06T06:50:09.305Z,168
2016-02-06T06:51:09.294Z,176
2016-02-06T06:52:09.296Z,188
2016-02-06T06:53:09.300Z,196
2016-02-06T06:54:09.270Z,208
2016-02-06T06:55:09.273Z,220
2016-02-06T06:56:09.277Z,240
2016-02-06T06:57:09.280Z,256
2016-02-06T06:58:09.267Z,280
2016-02-06T06:59:09.238Z,300
2016-02-06T07:00:09.225Z,328
2016-02-06T07:01:09.239Z,356
2016-02-06T07:02:09.273Z,380
2016-02-06T07:03:09.229Z,412
2016-02-06T07:04:09.233Z,440
2016-02-06T07:05:09.220Z,472
2016-02-06T07:06:09.207Z,504
2016-02-06T07:07:09.195Z,536
2016-02-06T07:08:09.181Z,572
2016-02-06T07:09:09.248Z,608
2016-02-06T07:10:09.234Z,640
2016-02-06T07:11:09.222Z,676
2016-02-06T07:12:09.178Z,720
2016-02-06T07:13:09.181Z,756
2016-02-06T07:14:09.152Z,800
2016-02-06T07:15:09.154Z,840
2016-02-06T07:16:09.189Z,880
2016-02-06T07:17:09.176Z,924
2016-02-06T07:18:09.179Z,964
2016-02-06T07:19:09.166Z,1008
2016-02-06T07:20:09.168Z,1056
2016-02-06T07:21:09.125Z,1108
2016-02-06T07:22:09.159Z,1152
2016-02-06T07:23:09.132Z,1200
2016-02-06T07:24:09.118Z,1244
2016-02-06T07:25:09.137Z,1288
2016-02-06T07:26:09.124Z,1344
2016-02-06T07:27:09.129Z,1392
2016-02-06T07:28:09.116Z,1448
2016-02-06T07:29:09.121Z,1500
2016-02-06T07:30:08.967Z,1552
2016-02-06T07:31:09.110Z,1596
2016-02-06T07:32:09.113Z,1644
2016-02-06T07:33:09.088Z,1688
2016-02-06T07:34:09.091Z,1748
2016-02-06T07:35:09.079Z,1808
2016-02-06T07:36:09.127Z,1856
2016-02-06T07:37:09.084Z,1900
2016-02-06T07:38:09.071Z,1956
2016-02-06T07:39:09.073Z,2000
2016-02-06T07:40:09.076Z,2028
2016-02-06T07:41:09.095Z,2072
2016-02-06T07:42:09.097Z,2112
2016-02-06T07:43:09.084Z,2144
2016-02-06T07:44:09.087Z,2180
2016-02-06T07:45:09.062Z,2212
2016-02-06T07:46:09.096Z,2260
2016-02-06T07:47:09.036Z,2316
2016-02-06T07:48:09.054Z,2356
2016-02-06T07:49:09.057Z,2424
2016-02-06T07:50:09.032Z,2488
2016-02-06T07:51:09.036Z,2548
2016-02-06T07:52:08.991Z,2604
2016-02-06T07:53:08.993Z,2656
2016-02-06T07:54:08.948Z,2704
2016-02-06T07:55:08.982Z,2744
2016-02-06T07:56:08.914Z,2840
2016-02-06T07:57:08.911Z,2888
2016-02-06T07:58:08.907Z,2940
2016-02-06T07:59:08.919Z,2984
2016-02-06T08:00:08.888Z,3016
2016-02-06T08:01:08.888Z,3060
2016-02-06T08:02:08.872Z,3084
2016-02-06T08:03:08.970Z,3168
2016-02-06T08:04:08.908Z,3204
2016-02-06T08:05:08.879Z,3240
2016-02-06T08:06:08.865Z,3260
2016-02-06T08:07:08.867Z,3280
2016-02-06T08:08:08.855Z,3332
2016-02-06T08:09:08.904Z,3388
2016-02-06T08:10:08.890Z,3436
2016-02-06T08:11:08.908Z,3472
2016-02-06T08:12:08.863Z,3488
2016-02-06T08:13:08.944Z,3528
2016-02-06T08:14:08.868Z,3580
2016-02-06T08:15:08.887Z,3672
2016-02-06T08:16:08.889Z,3760
2016-02-06T08:17:09.392Z,3840
2016-02-06T08:18:08.876Z,3940
2016-02-06T08:19:08.909Z,4020
2016-02-06T08:20:08.953Z,4044
2016-02-06T08:21:08.712Z,4112
2016-02-06T08:22:09.472Z,4156
2016-02-06T08:23:09.016Z,4188
2016-02-06T08:24:08.941Z,4232
2016-02-06T08:25:08.849Z,4272
2016-02-06T08:26:08.869Z,4308
2016-02-06T08:27:08.840Z,4316
2016-02-06T08:28:08.952Z,4364
2016-02-06T08:29:08.829Z,4404
2016-02-06T08:30:08.848Z,4444
2016-02-06T08:31:08.851Z,4496
2016-02-06T08:32:08.859Z,4524
2016-02-06T08:33:08.861Z,4556
2016-02-06T08:34:08.832Z,4580
2016-02-06T08:35:08.821Z,4620
2016-02-06T08:36:08.824Z,4648
2016-02-06T08:37:08.841Z,4656
2016-02-06T08:38:08.844Z,4664
2016-02-06T08:39:08.815Z,4672
2016-02-06T08:40:08.865Z,4720
2016-02-06T08:41:08.852Z,4784
2016-02-06T08:42:08.833Z,4844
2016-02-06T08:43:08.850Z,4884
2016-02-06T08:44:08.821Z,4944
2016-02-06T08:45:08.824Z,4968
2016-02-06T08:46:08.828Z,5012
2016-02-06T08:47:08.849Z,5052
2016-02-06T08:48:08.820Z,5100
2016-02-06T08:49:08.822Z,5180
2016-02-06T08:50:08.825Z,5256
2016-02-06T08:51:08.860Z,5356
2016-02-06T08:52:08.848Z,5396
2016-02-06T08:53:08.820Z,5436
2016-02-06T08:54:08.826Z,5504
2016-02-06T08:55:08.890Z,5552
2016-02-06T08:56:08.815Z,5656
2016-02-06T08:57:08.677Z,5740
2016-02-06T08:58:08.851Z,5680
2016-02-06T08:59:08.823Z,5676
2016-02-06T09:00:08.826Z,5684
2016-02-06T09:01:08.828Z,5688
2016-02-06T09:02:08.836Z,5692
2016-02-06T09:03:08.839Z,5800
2016-02-06T09:04:08.830Z,5884
2016-02-06T09:05:08.838Z,5940
2016-02-06T09:06:08.857Z,5920
2016-02-06T09:07:08.876Z,5952
2016-02-06T09:08:08.878Z,5936
2016-02-06T09:09:08.834Z,5916
2016-02-06T09:10:08.823Z,5880
2016-02-06T09:11:08.810Z,5908
2016-02-06T09:12:08.828Z,5984
2016-02-06T09:13:08.674Z,6088
2016-02-06T09:14:08.848Z,6144
2016-02-06T09:15:08.821Z,6120
2016-02-06T09:16:08.823Z,6100
2016-02-06T09:17:08.858Z,6084
2016-02-06T09:18:08.893Z,6180
2016-02-06T09:19:08.816Z,6276
2016-02-06T09:20:08.824Z,6420
2016-02-06T09:21:08.813Z,6524
2016-02-06T09:22:08.830Z,6508
2016-02-06T09:23:08.865Z,6552
2016-02-06T09:24:08.805Z,6600
2016-02-06T09:25:08.824Z,6544
2016-02-06T09:26:08.811Z,6556
2016-02-06T09:27:08.814Z,6508
2016-02-06T09:28:08.911Z,6572
2016-02-06T09:29:08.851Z,6608
2016-02-06T09:30:08.870Z,6624
2016-02-06T09:31:08.857Z,6608
2016-02-06T09:32:08.844Z,6608
2016-02-06T09:33:08.816Z,6636
2016-02-06T09:34:08.818Z,6712
2016-02-06T09:35:08.806Z,6740
2016-02-06T09:36:08.810Z,6832
2016-02-06T09:37:08.812Z,6912
2016-02-06T09:38:08.830Z,6876
2016-02-06T09:39:08.083Z,6960
2016-02-06T09:40:08.820Z,6812
2016-02-06T09:41:08.839Z,6856
2016-02-06T09:42:08.810Z,6816
2016-02-06T09:43:08.845Z,6952
2016-02-06T09:44:08.833Z,6876
2016-02-06T09:45:08.836Z,6908
2016-02-06T09:46:08.838Z,6900
2016-02-06T09:47:08.809Z,6856
2016-02-06T09:48:08.859Z,6788
2016-02-06T09:49:08.847Z,6864
2016-02-06T09:50:08.849Z,6876
2016-02-06T09:51:08.821Z,6880
2016-02-06T09:52:08.823Z,6840
2016-02-06T09:53:08.859Z,7032
2016-02-06T09:54:08.829Z,7116
2016-02-06T09:55:08.879Z,7172
2016-02-06T09:56:08.834Z,7044
2016-02-06T09:57:08.869Z,6932
2016-02-06T09:58:08.903Z,7024
2016-02-06T09:59:08.874Z,7136
2016-02-06T10:00:08.830Z,7312
2016-02-06T10:01:08.848Z,7428
2016-02-06T10:02:08.685Z,7460
2016-02-06T10:03:08.830Z,7500
2016-02-06T10:04:08.832Z,7516
2016-02-06T10:05:08.835Z,7516
2016-02-06T10:06:08.854Z,7620
2016-02-06T10:07:08.840Z,7636
2016-02-06T10:08:08.843Z,7652
2016-02-06T10:09:08.831Z,7676
2016-02-06T10:10:08.927Z,7736
2016-02-06T10:11:08.852Z,7644
2016-02-06T10:12:08.885Z,7632
2016-02-06T10:13:08.951Z,7568
2016-02-06T10:14:08.861Z,7504
2016-02-06T10:15:08.848Z,7620
2016-02-06T10:16:08.835Z,7560
2016-02-06T10:17:08.684Z,7604
2016-02-06T10:18:08.890Z,7640
2016-02-06T10:19:08.847Z,7584
2016-02-06T10:20:08.864Z,7628
2016-02-06T10:21:08.866Z,7664
2016-02-06T10:22:09.170Z,7596
2016-02-06T10:23:09.315Z,7684
2016-02-06T10:24:08.879Z,7572
2016-02-06T10:25:08.882Z,7632
2016-02-06T10:26:08.869Z,7676
2016-02-06T10:27:08.855Z,7844
2016-02-06T10:28:08.937Z,8012
2016-02-06T10:29:08.909Z,8160
2016-02-06T10:30:08.896Z,8452
2016-02-06T10:31:08.947Z,8476
2016-02-06T10:32:08.919Z,8644
2016-02-06T10:33:08.905Z,8732
2016-02-06T10:34:08.908Z,8848
2016-02-06T10:35:08.895Z,8908
2016-02-06T10:36:08.930Z,8944
2016-02-06T10:37:08.948Z,9100
2016-02-06T10:38:08.951Z,9080
2016-02-06T10:39:08.922Z,9124
2016-02-06T10:40:08.956Z,9160
2016-02-06T10:41:08.958Z,9264
2016-02-06T10:42:08.930Z,9216
2016-02-06T10:43:08.934Z,9188
2016-02-06T10:44:08.968Z,8932
2016-02-06T10:45:08.923Z,8872
2016-02-06T10:46:08.973Z,8640
2016-02-06T10:47:08.928Z,8612
2016-02-06T10:48:08.998Z,8532
2016-02-06T10:49:08.955Z,8464
2016-02-06T10:50:08.957Z,8308
2016-02-06T10:51:09.382Z,8124
2016-02-06T10:52:08.963Z,8068
2016-02-06T10:53:08.965Z,8124
2016-02-06T10:54:08.953Z,8172
2016-02-06T10:55:08.971Z,7852
2016-02-06T10:56:08.975Z,7808
2016-02-06T10:57:09.024Z,7488
2016-02-06T10:58:09.011Z,7364
2016-02-06T10:59:08.987Z,7296
2016-02-06T11:00:09.052Z,7140
2016-02-06T11:01:09.086Z,7184
2016-02-06T11:02:09.057Z,7164
2016-02-06T11:03:09.013Z,7344
2016-02-06T11:04:09.002Z,7336
2016-02-06T11:05:09.035Z,7400
2016-02-06T11:06:09.022Z,7408
2016-02-06T11:07:09.024Z,7572
2016-02-06T11:08:09.012Z,7716
2016-02-06T11:09:09.018Z,7536
2016-02-06T11:10:09.052Z,7588
2016-02-06T11:11:09.039Z,7456
2016-02-06T11:12:09.027Z,7476
2016-02-06T11:13:09.060Z,7348
2016-02-06T11:14:09.047Z,7456
2016-02-06T11:15:09.050Z,7480
2016-02-06T11:16:09.053Z,7760
2016-02-06T11:17:09.071Z,7816
2016-02-06T11:18:09.105Z,7600
2016-02-06T11:19:09.076Z,7260
2016-02-06T11:20:09.096Z,7168
2016-02-06T11:21:09.066Z,7484
2016-02-06T11:22:09.069Z,7516
2016-02-06T11:23:09.087Z,7620
2016-02-06T11:24:09.075Z,7596
2016-02-06T11:25:09.125Z,7556
2016-02-06T11:26:09.113Z,7516
2016-02-06T11:27:09.068Z,7332
2016-02-06T11:28:09.098Z,7712
2016-02-06T11:29:09.119Z,7904
2016-02-06T11:30:09.123Z,7728
2016-02-06T11:31:09.093Z,7444
2016-02-06T11:32:09.096Z,7252
2016-02-06T11:33:09.114Z,7104
2016-02-06T11:34:09.148Z,7184
2016-02-06T11:35:09.137Z,7144
2016-02-06T11:36:09.170Z,6996
2016-02-06T11:37:09.130Z,6704
2016-02-06T11:38:09.132Z,6508
2016-02-06T11:39:09.136Z,6356
2016-02-06T11:40:09.170Z,6356
2016-02-06T11:41:09.141Z,6372
2016-02-06T11:42:09.175Z,6536
2016-02-06T11:43:09.177Z,6668
2016-02-06T11:44:09.180Z,6712
2016-02-06T11:45:09.183Z,6856
2016-02-06T11:46:09.233Z,6672
2016-02-06T11:47:09.032Z,6520
2016-02-06T11:48:09.174Z,6720
2016-02-06T11:49:09.241Z,6680
2016-02-06T11:50:09.260Z,6824
2016-02-06T11:51:09.200Z,6912
2016-02-06T11:52:09.219Z,6852
2016-02-06T11:53:09.221Z,7032
2016-02-06T11:54:09.224Z,6852
2016-02-06T11:55:09.242Z,6772
2016-02-06T11:56:09.244Z,7064
2016-02-06T11:57:09.247Z,7204
2016-02-06T11:58:09.250Z,7108
2016-02-06T11:59:09.238Z,7076
2016-02-06T12:00:09.273Z,7192
2016-02-06T12:01:09.260Z,7316
2016-02-06T12:02:09.262Z,7516
2016-02-06T12:03:09.251Z,7448
2016-02-06T12:04:09.285Z,7356
2016-02-06T12:05:09.272Z,7376
2016-02-06T12:06:09.274Z,7428
2016-02-06T12:07:09.324Z,7228
2016-02-06T12:08:09.265Z,7404
2016-02-06T12:09:09.314Z,7240
2016-02-06T12:10:09.317Z,7088
2016-02-06T12:11:09.323Z,6964
2016-02-06T12:12:09.138Z,6796
2016-02-06T12:13:09.360Z,6616
2016-02-06T12:14:09.330Z,6604
2016-02-06T12:15:09.333Z,6652
2016-02-06T12:16:09.341Z,6660
2016-02-06T12:17:09.329Z,6700
2016-02-06T12:18:09.346Z,6724
2016-02-06T12:19:09.335Z,6640
2016-02-06T12:20:09.338Z,6616
2016-02-06T12:21:09.341Z,6608
2016-02-06T12:22:09.343Z,6672
2016-02-06T12:23:09.377Z,6712
2016-02-06T12:24:09.396Z,6840
2016-02-06T12:25:09.416Z,6772
2016-02-06T12:26:09.434Z,6532
2016-02-06T12:27:09.390Z,6508
2016-02-06T12:28:09.378Z,6588
2016-02-06T12:29:09.412Z,6696
2016-02-06T12:30:09.400Z,6696
2016-02-06T12:31:09.418Z,6708
2016-02-06T12:32:09.468Z,6716
2016-02-06T12:33:09.440Z,6724
2016-02-06T12:34:09.442Z,6816
2016-02-06T12:35:09.429Z,6812
2016-02-06T12:36:09.431Z,6796
2016-02-06T12:37:09.452Z,6868
2016-02-06T12:38:09.516Z,6900
2016-02-06T12:39:09.519Z,6844
2016-02-06T12:40:09.443Z,6892
2016-02-06T12:41:09.479Z,6828
2016-02-06T12:42:09.481Z,6840
2016-02-06T12:43:09.484Z,6776
2016-02-06T12:44:09.501Z,6748
2016-02-06T12:45:09.489Z,6784
2016-02-06T12:46:09.492Z,6664
2016-02-06T12:47:09.494Z,6720
2016-02-06T12:48:09.512Z,6740
2016-02-06T12:49:09.500Z,6724
2016-02-06T12:50:09.549Z,6712
2016-02-06T12:51:09.928Z,6716
2016-02-06T12:52:10.182Z,6688
2016-02-06T12:53:09.528Z,6628
2016-02-06T12:54:09.562Z,6576
2016-02-06T12:55:09.550Z,6540
2016-02-06T12:56:09.568Z,6528
2016-02-06T12:57:09.559Z,6484
2016-02-06T12:58:09.561Z,6452
2016-02-06T12:59:09.563Z,6400
2016-02-06T13:00:09.569Z,6348
2016-02-06T13:01:09.586Z,6248
2016-02-06T13:02:09.621Z,6176
2016-02-06T13:03:09.592Z,6220
2016-02-06T13:04:09.610Z,6228
2016-02-06T13:05:09.614Z,6192
2016-02-06T13:06:09.648Z,6152
2016-02-06T13:07:09.619Z,6104
2016-02-06T13:08:09.638Z,6060
2016-02-06T13:09:09.656Z,6028
2016-02-06T13:10:09.662Z,5992
2016-02-06T13:11:09.664Z,5956
2016-02-06T13:12:09.667Z,5916
2016-02-06T13:13:10.560Z,5880
2016-02-06T13:14:09.656Z,5852
2016-02-06T13:15:09.675Z,5828
2016-02-06T13:16:09.694Z,5792
2016-02-06T13:17:09.664Z,5772
2016-02-06T13:18:09.688Z,5772
2016-02-06T13:19:09.706Z,5776
2016-02-06T13:20:09.709Z,5740
2016-02-06T13:21:09.712Z,5740
2016-02-06T13:22:09.715Z,5716
2016-02-06T13:23:09.718Z,5736
2016-02-06T13:24:09.736Z,5704
2016-02-06T13:25:09.754Z,5712
2016-02-06T13:26:09.744Z,5732
2016-02-06T13:27:09.824Z,5756
2016-02-06T13:28:09.797Z,5772
2016-02-06T13:29:09.752Z,5728
2016-02-06T13:30:09.771Z,5716
2016-02-06T13:31:09.777Z,5700
2016-02-06T13:32:09.780Z,5684
2016-02-06T13:33:09.782Z,5648
2016-02-06T13:34:09.768Z,5608
2016-02-06T13:35:09.788Z,5580
2016-02-06T13:36:09.825Z,5528
2016-02-06T13:37:09.858Z,5484
2016-02-06T13:38:09.830Z,5436
2016-02-06T13:39:09.852Z,5396
2016-02-06T13:40:09.808Z,5356
2016-02-06T13:41:09.842Z,5280
2016-02-06T13:42:09.844Z,5224
2016-02-06T13:43:09.909Z,5176
2016-02-06T13:44:09.866Z,5132
2016-02-06T13:45:09.853Z,5104
2016-02-06T13:46:09.918Z,5040
2016-02-06T13:47:09.906Z,5012
2016-02-06T13:48:09.876Z,4968
2016-02-06T13:49:09.895Z,4916
2016-02-06T13:50:09.898Z,4860
2016-02-06T13:51:09.917Z,4808
2016-02-06T13:52:09.890Z,4768
2016-02-06T13:53:09.909Z,4736
2016-02-06T13:54:09.895Z,4700
2016-02-06T13:55:09.931Z,4576
2016-02-06T13:56:09.964Z,4564
2016-02-06T13:57:09.936Z,4556
2016-02-06T13:58:09.969Z,4508
2016-02-06T13:59:09.972Z,4464